createdAt,value
2018-06-25T00:02:22.379Z,99.90
2018-06-25T00:04:50.027Z,99.90
2018-06-25T00:07:17.690Z,99.90
2018-06-25T00:09:45.316Z,99.90
2018-06-25T00:12:13.033Z,99.90
2018-06-25T00:14:40.662Z,99.90
2018-06-25T00:17:08.352Z,99.90
2018-06-25T00:19:36.022Z,99.90
2018-06-25T00:22:03.713Z,99.90
2018-06-25T00:24:31.355Z,99.90
2018-06-25T00:26:59.008Z,99.90
2018-06-25T00:29:26.646Z,99.90
2018-06-25T00:31:54.312Z,99.90
2018-06-25T00:34:21.997Z,99.90
2018-06-25T00:36:49.626Z,99.90
2018-06-25T00:39:17.305Z,99.90
2018-06-25T00:41:44.972Z,99.90
2018-06-25T00:44:12.658Z,99.90
2018-06-25T00:46:40.280Z,99.90
2018-06-25T00:49:07.929Z,99.90
2018-06-25T00:51:35.603Z,99.90
2018-06-25T00:54:03.374Z,99.90
2018-06-25T00:56:31.025Z,99.90
2018-06-25T00:59:10.034Z,99.90
2018-06-25T01:01:37.649Z,99.90
2018-06-25T01:04:05.273Z,99.90
2018-06-25T01:06:32.908Z,99.90
2018-06-25T01:09:00.539Z,99.90
2018-06-25T01:11:28.243Z,99.90
2018-06-25T01:13:55.957Z,99.90
2018-06-25T01:16:23.648Z,99.90
2018-06-25T01:18:51.294Z,99.90
2018-06-25T01:21:18.954Z,99.90
2018-06-25T01:23:46.597Z,99.90
2018-06-25T01:26:14.218Z,99.90
2018-06-25T01:28:41.834Z,99.90
2018-06-25T01:31:09.426Z,99.90
2018-06-25T01:33:37.117Z,99.90
2018-06-25T01:36:04.749Z,99.90
2018-06-25T01:38:32.382Z,99.90
2018-06-25T01:41:00.040Z,99.90
2018-06-25T01:43:27.659Z,99.90
2018-06-25T01:45:55.294Z,99.90
2018-06-25T01:48:22.905Z,99.90
2018-06-25T01:50:50.508Z,99.90
2018-06-25T01:53:18.160Z,99.90
2018-06-25T01:55:45.820Z,99.90
2018-06-25T01:58:13.520Z,99.90
2018-06-25T02:00:41.175Z,99.90
2018-06-25T02:03:08.819Z,99.90
2018-06-25T02:05:36.482Z,99.90
2018-06-25T02:08:04.394Z,99.90
2018-06-25T02:10:32.009Z,99.90
2018-06-25T02:12:59.646Z,99.90
2018-06-25T02:15:27.310Z,99.90
2018-06-25T02:17:54.958Z,99.90
2018-06-25T02:20:22.597Z,99.90
2018-06-25T02:22:50.197Z,99.90
2018-06-25T02:25:17.813Z,99.90
2018-06-25T02:27:45.440Z,99.90
2018-06-25T02:30:13.060Z,99.90
2018-06-25T02:32:40.693Z,99.90
2018-06-25T02:35:08.350Z,99.90
2018-06-25T02:37:36.008Z,99.90
2018-06-25T02:40:03.747Z,99.90
2018-06-25T02:42:31.430Z,99.90
2018-06-25T02:44:59.075Z,99.90
2018-06-25T02:47:26.723Z,99.90
2018-06-25T02:49:54.338Z,99.90
2018-06-25T02:52:22.007Z,99.90
2018-06-25T02:54:49.674Z,99.90
2018-06-25T02:57:17.322Z,99.90
2018-06-25T02:59:45.174Z,99.90
2018-06-25T03:02:12.823Z,99.90
2018-06-25T03:04:40.464Z,99.90
2018-06-25T03:07:08.133Z,99.90
2018-06-25T03:09:35.740Z,99.90
2018-06-25T03:12:03.404Z,99.90
2018-06-25T03:14:31.046Z,99.90
2018-06-25T03:16:58.716Z,99.90
2018-06-25T03:19:26.358Z,99.90
2018-06-25T03:21:53.981Z,99.90
2018-06-25T03:24:21.585Z,99.90
2018-06-25T03:26:49.237Z,99.90
2018-06-25T03:29:16.829Z,99.90
2018-06-25T03:31:44.479Z,99.90
2018-06-25T03:34:12.096Z,99.90
2018-06-25T03:36:39.719Z,99.90
2018-06-25T03:39:08.971Z,99.90
2018-06-25T03:41:36.601Z,99.90
2018-06-25T03:44:04.266Z,99.90
2018-06-25T03:46:31.929Z,99.90
2018-06-25T03:48:59.569Z,99.90
2018-06-25T03:51:27.186Z,99.90
2018-06-25T03:53:54.898Z,99.90
2018-06-25T03:56:23.257Z,99.90
2018-06-25T03:58:50.877Z,99.90
2018-06-25T04:01:18.523Z,99.90
2018-06-25T04:03:46.166Z,99.90
2018-06-25T04:06:13.911Z,99.90
2018-06-25T04:08:41.667Z,99.90
2018-06-25T04:11:09.286Z,99.90
2018-06-25T04:13:36.980Z,99.90
2018-06-25T04:16:04.749Z,99.90
2018-06-25T04:18:32.440Z,99.90
2018-06-25T04:21:00.095Z,99.90
2018-06-25T04:23:27.785Z,99.90
2018-06-25T04:25:55.416Z,99.90
2018-06-25T04:28:23.021Z,99.90
2018-06-25T04:30:50.645Z,99.90
2018-06-25T04:33:18.261Z,99.90
2018-06-25T04:35:45.898Z,99.90
2018-06-25T04:38:13.530Z,99.90
2018-06-25T04:40:41.202Z,99.90
2018-06-25T04:43:08.844Z,99.90
2018-06-25T04:45:36.493Z,99.90
2018-06-25T04:48:04.161Z,99.90
2018-06-25T04:50:31.899Z,99.90
2018-06-25T04:52:59.592Z,99.90
2018-06-25T04:55:27.222Z,99.90
2018-06-25T04:57:54.849Z,99.90
2018-06-25T05:00:22.477Z,99.90
2018-06-25T05:02:50.130Z,99.90
2018-06-25T05:05:17.782Z,99.90
2018-06-25T05:07:45.491Z,99.90
2018-06-25T05:10:13.190Z,99.90
2018-06-25T05:12:40.826Z,99.90
2018-06-25T05:15:08.938Z,99.90
2018-06-25T05:17:36.561Z,99.90
2018-06-25T05:20:04.613Z,99.90
2018-06-25T05:22:32.274Z,99.90
2018-06-25T05:24:59.926Z,99.90
2018-06-25T05:27:27.565Z,99.90
2018-06-25T05:29:55.216Z,99.90
2018-06-25T05:32:22.882Z,99.90
2018-06-25T05:34:50.542Z,99.90
2018-06-25T05:37:18.174Z,99.90
2018-06-25T05:39:45.984Z,99.90
2018-06-25T05:42:20.710Z,99.90
2018-06-25T05:44:49.081Z,99.90
2018-06-25T05:47:17.114Z,99.90
2018-06-25T05:49:44.739Z,99.90
2018-06-25T05:52:12.448Z,99.90
2018-06-25T05:54:40.108Z,99.90
2018-06-25T05:57:07.779Z,99.90
2018-06-25T05:59:35.473Z,99.90
2018-06-25T06:02:03.134Z,99.90
2018-06-25T06:04:30.798Z,99.90
2018-06-25T06:06:58.450Z,99.90
2018-06-25T06:09:26.170Z,99.90
2018-06-25T06:11:53.873Z,99.90
2018-06-25T06:14:21.512Z,99.90
2018-06-25T06:16:49.163Z,99.90
2018-06-25T06:19:16.793Z,99.90
2018-06-25T06:21:44.483Z,99.90
2018-06-25T06:24:12.114Z,99.90
2018-06-25T06:26:39.749Z,99.90
2018-06-25T06:29:07.402Z,99.90
2018-06-25T06:31:35.062Z,99.90
2018-06-25T06:34:02.731Z,99.50
2018-06-25T06:36:30.383Z,99.50
2018-06-25T06:38:58.045Z,97.80
2018-06-25T06:41:25.666Z,96.80
2018-06-25T06:43:53.304Z,97.50
2018-06-25T06:46:21.052Z,97.30
2018-06-25T06:48:48.697Z,96.30
2018-06-25T06:51:16.342Z,94.90
2018-06-25T06:53:44.071Z,95.80
2018-06-25T06:56:12.004Z,94.90
2018-06-25T06:58:39.642Z,96.50
2018-06-25T07:01:07.281Z,95.20
2018-06-25T07:03:34.949Z,94.20
2018-06-25T07:06:02.638Z,92.70
2018-06-25T07:08:30.312Z,93.10
2018-06-25T07:10:57.970Z,90.90
2018-06-25T07:13:25.626Z,92.20
2018-06-25T07:15:53.249Z,91.20
2018-06-25T07:18:20.862Z,92.40
2018-06-25T07:20:48.559Z,94.70
2018-06-25T07:23:16.270Z,93.90
2018-06-25T07:25:43.986Z,92.10
2018-06-25T07:28:11.582Z,87.40
2018-06-25T07:30:39.256Z,85.70
2018-06-25T07:33:06.906Z,89.50
2018-06-25T07:35:34.600Z,91.60
2018-06-25T07:38:02.243Z,90.60
2018-06-25T07:40:29.869Z,91.20
2018-06-25T07:42:57.470Z,92.90
2018-06-25T07:45:25.102Z,90.60
2018-06-25T07:47:52.712Z,92.40
2018-06-25T07:50:20.412Z,93.00
2018-06-25T07:52:48.092Z,92.40
2018-06-25T07:55:15.737Z,87.20
2018-06-25T07:57:43.387Z,89.00
2018-06-25T08:00:11.056Z,89.40
2018-06-25T08:02:38.694Z,90.30
2018-06-25T08:05:06.357Z,88.70
2018-06-25T08:07:34.028Z,88.00
2018-06-25T08:10:01.785Z,88.30
2018-06-25T08:12:29.491Z,90.30
2018-06-25T08:14:57.177Z,90.20
2018-06-25T08:17:24.846Z,91.00
2018-06-25T08:19:52.531Z,90.80
2018-06-25T08:22:20.180Z,90.50
2018-06-25T08:24:47.805Z,89.60
2018-06-25T08:27:15.530Z,88.70
2018-06-25T08:29:43.279Z,89.80
2018-06-25T08:32:10.914Z,87.60
2018-06-25T08:34:38.805Z,88.50
2018-06-25T08:37:06.701Z,89.80
2018-06-25T08:39:34.288Z,88.60
2018-06-25T08:42:01.921Z,89.80
2018-06-25T08:44:29.558Z,89.00
2018-06-25T08:46:57.932Z,87.10
2018-06-25T08:49:25.632Z,87.20
2018-06-25T08:51:53.411Z,87.70
2018-06-25T08:54:21.082Z,88.60
2018-06-25T08:56:48.735Z,86.40
2018-06-25T08:59:16.388Z,84.60
2018-06-25T09:01:44.115Z,86.30
2018-06-25T09:04:12.135Z,89.10
2018-06-25T09:06:39.828Z,85.10
2018-06-25T09:09:09.427Z,84.60
2018-06-25T09:11:37.052Z,82.10
2018-06-25T09:14:04.900Z,83.00
2018-06-25T09:16:32.550Z,83.80
2018-06-25T09:19:00.159Z,83.40
2018-06-25T09:21:27.807Z,82.50
2018-06-25T09:23:55.462Z,83.90
2018-06-25T09:26:23.180Z,82.00
2018-06-25T09:28:50.909Z,80.00
2018-06-25T09:31:19.209Z,79.20
2018-06-25T09:33:46.821Z,82.30
2018-06-25T09:36:14.464Z,84.20
2018-06-25T09:38:42.200Z,84.30
2018-06-25T09:41:09.995Z,83.40
2018-06-25T09:43:37.666Z,84.60
2018-06-25T09:46:05.844Z,83.30
2018-06-25T09:48:33.506Z,83.80
2018-06-25T09:51:01.295Z,81.80
2018-06-25T09:53:29.236Z,84.40
2018-06-25T09:55:56.919Z,84.40
2018-06-25T09:58:24.617Z,81.90
2018-06-25T10:00:57.787Z,83.30
2018-06-25T10:03:25.440Z,83.10
2018-06-25T10:05:53.092Z,86.20
2018-06-25T10:08:20.822Z,83.20
2018-06-25T10:10:48.603Z,83.20
2018-06-25T10:13:16.379Z,83.40
2018-06-25T10:15:44.129Z,85.90
2018-06-25T10:18:11.782Z,87.50
2018-06-25T10:20:39.491Z,84.50
2018-06-25T10:23:07.181Z,80.70
2018-06-25T10:25:35.467Z,80.40
2018-06-25T10:28:03.337Z,80.30
2018-06-25T10:30:31.041Z,81.00
2018-06-25T10:32:58.688Z,82.00
2018-06-25T10:35:26.407Z,79.80
2018-06-25T10:37:54.081Z,80.90
2018-06-25T10:40:21.806Z,79.80
2018-06-25T10:42:49.460Z,81.20
2018-06-25T10:45:17.472Z,78.40
2018-06-25T10:47:45.125Z,78.10
2018-06-25T10:50:12.979Z,80.60
2018-06-25T10:52:40.838Z,77.80
2018-06-25T10:55:08.797Z,79.50
2018-06-25T10:57:36.464Z,77.60
2018-06-25T11:00:05.296Z,77.10
2018-06-25T11:02:32.843Z,80.00
2018-06-25T11:05:00.494Z,77.60
2018-06-25T11:07:28.525Z,77.60
2018-06-25T11:09:56.206Z,79.40
2018-06-25T11:12:23.890Z,80.00
2018-06-25T11:14:51.514Z,78.80
2018-06-25T11:17:19.137Z,78.80
2018-06-25T11:19:46.790Z,78.00
2018-06-25T11:22:14.466Z,78.90
2018-06-25T11:24:42.117Z,76.60
2018-06-25T11:27:10.319Z,78.20
2018-06-25T11:29:37.817Z,77.20
2018-06-25T11:32:05.466Z,80.00
2018-06-25T11:34:33.110Z,78.90
2018-06-25T11:37:00.766Z,79.20
2018-06-25T11:39:28.393Z,78.90
2018-06-25T11:41:56.071Z,80.00
2018-06-25T11:44:23.865Z,76.50
2018-06-25T11:46:51.546Z,77.80
2018-06-25T11:49:19.202Z,75.90
2018-06-25T11:51:46.924Z,77.20
2018-06-25T11:54:14.634Z,76.70
2018-06-25T11:56:42.260Z,75.30
2018-06-25T11:59:09.921Z,72.40
2018-06-25T12:01:37.583Z,75.30
2018-06-25T12:04:05.264Z,74.30
2018-06-25T12:06:32.959Z,72.30
2018-06-25T12:09:00.654Z,70.10
2018-06-25T12:11:28.293Z,72.30
2018-06-25T12:13:56.006Z,70.70
2018-06-25T12:16:23.724Z,69.80
2018-06-25T12:18:51.501Z,72.20
2018-06-25T12:21:19.167Z,72.10
2018-06-25T12:23:46.818Z,69.90
2018-06-25T12:26:14.435Z,70.40
2018-06-25T12:28:42.066Z,69.30
2018-06-25T12:31:09.705Z,70.10
2018-06-25T12:33:37.349Z,68.10
2018-06-25T12:36:05.126Z,69.10
2018-06-25T12:38:32.800Z,70.90
2018-06-25T12:41:00.424Z,69.40
2018-06-25T12:43:28.076Z,71.20
2018-06-25T12:45:55.734Z,68.00
2018-06-25T12:48:23.500Z,66.20
2018-06-25T12:50:51.117Z,65.80
2018-06-25T12:53:18.751Z,66.80
2018-06-25T12:55:46.458Z,65.10
2018-06-25T12:58:14.071Z,61.30
2018-06-25T13:00:41.677Z,62.30
2018-06-25T13:03:09.350Z,63.20
2018-06-25T13:05:36.981Z,64.90
2018-06-25T13:08:04.720Z,62.60
2018-06-25T13:10:32.442Z,62.40
2018-06-25T13:13:00.102Z,64.80
2018-06-25T13:15:27.796Z,67.10
2018-06-25T13:17:55.443Z,66.40
2018-06-25T13:20:23.114Z,66.70
2018-06-25T13:22:50.766Z,64.80
2018-06-25T13:25:18.464Z,64.00
2018-06-25T13:27:46.122Z,63.80
2018-06-25T13:30:13.783Z,68.20
2018-06-25T13:32:41.428Z,67.00
2018-06-25T13:35:09.074Z,67.50
2018-06-25T13:37:36.754Z,64.50
2018-06-25T13:40:04.566Z,63.80
2018-06-25T13:42:32.190Z,63.50
2018-06-25T13:45:01.158Z,60.60
2018-06-25T13:47:31.037Z,63.60
2018-06-25T13:50:00.337Z,61.20
2018-06-25T13:52:28.021Z,62.70
2018-06-25T13:54:55.706Z,64.70
2018-06-25T13:57:23.366Z,61.80
2018-06-25T13:59:51.071Z,62.30
2018-06-25T14:02:18.722Z,64.90
2018-06-25T14:04:46.355Z,62.30
2018-06-25T14:07:14.097Z,64.50
2018-06-25T14:09:41.654Z,62.00
2018-06-25T14:12:09.396Z,64.60
2018-06-25T14:14:37.024Z,60.20
2018-06-25T14:17:04.975Z,60.80
2018-06-25T14:19:32.602Z,65.00
2018-06-25T14:22:00.357Z,64.80
2018-06-25T14:24:33.524Z,64.80
2018-06-25T14:27:06.917Z,63.90
2018-06-25T14:29:35.091Z,62.40
2018-06-25T14:32:08.453Z,60.90
2018-06-25T14:34:36.226Z,61.30
2018-06-25T14:37:04.231Z,62.50
2018-06-25T14:39:31.915Z,59.80
2018-06-25T14:41:59.591Z,58.00
2018-06-25T14:44:27.252Z,57.60
2018-06-25T14:46:54.903Z,61.00
2018-06-25T14:49:22.537Z,58.30
2018-06-25T14:51:50.221Z,60.10
2018-06-25T14:54:17.934Z,61.30
2018-06-25T14:56:45.640Z,59.90
2018-06-25T14:59:13.294Z,59.00
2018-06-25T15:01:40.936Z,60.50
2018-06-25T15:04:08.642Z,58.30
2018-06-25T15:06:36.281Z,59.90
2018-06-25T15:09:07.418Z,59.60
2018-06-25T15:11:35.064Z,59.10
2018-06-25T15:14:02.745Z,59.60
2018-06-25T15:16:30.367Z,59.40
2018-06-25T15:18:57.993Z,61.50
2018-06-25T15:21:25.654Z,60.00
2018-06-25T15:23:53.313Z,64.10
2018-06-25T15:26:21.011Z,61.00
2018-06-25T15:28:48.671Z,62.30
2018-06-25T15:31:16.297Z,63.80
2018-06-25T15:33:43.933Z,63.30
2018-06-25T15:36:11.628Z,63.50
2018-06-25T15:38:39.260Z,60.80
2018-06-25T15:41:06.934Z,61.20
2018-06-25T15:43:34.655Z,62.40
2018-06-25T15:46:02.319Z,61.10
2018-06-25T15:48:30.140Z,60.40
2018-06-25T15:50:57.869Z,59.40
2018-06-25T15:53:25.546Z,57.20
2018-06-25T15:55:53.204Z,59.50
2018-06-25T15:58:20.800Z,61.00
2018-06-25T16:00:48.414Z,60.40
2018-06-25T16:03:16.040Z,59.10
2018-06-25T16:05:43.665Z,57.60
2018-06-25T16:08:11.256Z,58.80
2018-06-25T16:10:38.922Z,60.50
2018-06-25T16:13:06.604Z,60.60
2018-06-25T16:15:34.290Z,58.60
2018-06-25T16:18:01.981Z,59.40
2018-06-25T16:20:29.601Z,58.10
2018-06-25T16:22:57.232Z,58.10
2018-06-25T16:25:24.875Z,60.10
2018-06-25T16:27:52.577Z,58.60
2018-06-25T16:30:20.307Z,59.30
2018-06-25T16:32:48.029Z,59.30
2018-06-25T16:35:15.786Z,60.30
2018-06-25T16:37:43.691Z,58.30
2018-06-25T16:40:11.364Z,58.90
2018-06-25T16:42:39.342Z,56.80
2018-06-25T16:45:07.042Z,56.70
2018-06-25T16:47:34.675Z,59.10
2018-06-25T16:50:02.441Z,57.60
2018-06-25T16:52:30.107Z,56.70
2018-06-25T16:54:57.837Z,57.10
2018-06-25T16:57:25.502Z,57.30
2018-06-25T16:59:53.146Z,56.60
2018-06-25T17:02:20.970Z,57.60
2018-06-25T17:04:48.656Z,57.60
2018-06-25T17:07:16.353Z,56.70
2018-06-25T17:09:43.982Z,56.00
2018-06-25T17:12:11.701Z,56.80
2018-06-25T17:14:40.293Z,57.20
2018-06-25T17:17:08.136Z,57.00
2018-06-25T17:19:35.799Z,57.50
2018-06-25T17:22:03.541Z,56.50
2018-06-25T17:24:31.434Z,57.70
2018-06-25T17:26:59.055Z,57.60
2018-06-25T17:29:26.796Z,57.50
2018-06-25T17:31:54.491Z,58.00
2018-06-25T17:34:22.127Z,58.30
2018-06-25T17:36:49.854Z,57.70
2018-06-25T17:39:17.730Z,57.50
2018-06-25T17:41:45.386Z,57.30
2018-06-25T17:46:40.583Z,57.20
2018-06-25T17:49:08.233Z,58.30
2018-06-25T17:51:35.938Z,58.90
2018-06-25T17:54:03.729Z,58.90
2018-06-25T17:56:31.470Z,58.80
2018-06-25T17:58:59.145Z,57.80
2018-06-25T18:01:26.966Z,58.60
2018-06-25T18:03:54.720Z,59.30
2018-06-25T18:06:22.480Z,59.30
2018-06-25T18:08:50.135Z,57.80
2018-06-25T18:11:17.863Z,58.50
2018-06-25T18:13:45.735Z,60.40
2018-06-25T18:16:13.511Z,60.80
2018-06-25T18:18:41.192Z,60.80
2018-06-25T18:21:08.862Z,60.50
2018-06-25T18:23:36.522Z,60.40
2018-06-25T18:26:04.236Z,61.40
2018-06-25T18:28:31.881Z,60.80
2018-06-25T18:30:59.546Z,61.50
2018-06-25T18:33:27.302Z,60.80
2018-06-25T18:35:54.978Z,62.50
2018-06-25T18:38:22.650Z,62.10
2018-06-25T18:40:50.343Z,62.70
2018-06-25T18:43:18.082Z,64.00
2018-06-25T18:45:45.754Z,64.80
2018-06-25T18:48:13.413Z,64.00
2018-06-25T18:50:41.056Z,64.90
2018-06-25T18:53:08.730Z,65.40
2018-06-25T18:55:36.402Z,65.60
2018-06-25T18:58:04.208Z,66.90
2018-06-25T19:00:31.842Z,66.60
2018-06-25T19:02:59.505Z,67.70
2018-06-25T19:05:27.226Z,67.90
2018-06-25T19:07:54.902Z,68.70
2018-06-25T19:10:22.622Z,68.80
2018-06-25T19:12:50.286Z,68.80
2018-06-25T19:15:17.957Z,69.20
2018-06-25T19:17:45.706Z,69.60
2018-06-25T19:20:13.375Z,70.60
2018-06-25T19:22:41.018Z,71.90
2018-06-25T19:25:08.682Z,72.70
2018-06-25T19:27:36.384Z,71.80
2018-06-25T19:30:04.182Z,72.20
2018-06-25T19:32:31.797Z,73.00
2018-06-25T19:34:59.447Z,73.60
2018-06-25T19:37:27.106Z,74.60
2018-06-25T19:39:54.740Z,75.40
2018-06-25T19:42:22.401Z,75.40
2018-06-25T19:44:50.046Z,75.30
2018-06-25T19:47:17.654Z,75.40
2018-06-25T19:49:45.327Z,76.50
2018-06-25T19:52:12.962Z,76.80
2018-06-25T19:54:40.678Z,77.50
2018-06-25T19:57:08.334Z,78.40
2018-06-25T19:59:36.044Z,78.90
2018-06-25T20:02:03.739Z,79.30
2018-06-25T20:04:31.361Z,80.10
2018-06-25T20:06:59.092Z,80.30
2018-06-25T20:11:54.406Z,80.60
2018-06-25T20:14:22.084Z,80.70
2018-06-25T20:16:49.761Z,81.30
2018-06-25T20:19:17.474Z,81.40
2018-06-25T20:21:45.978Z,81.70
2018-06-25T20:24:13.642Z,81.80
2018-06-25T20:26:41.330Z,82.30
2018-06-25T20:29:09.218Z,82.50
2018-06-25T20:31:36.692Z,82.80
2018-06-25T20:34:04.642Z,83.00
2018-06-25T20:36:32.314Z,83.20
2018-06-25T20:38:59.951Z,83.40
2018-06-25T20:41:27.604Z,83.40
2018-06-25T20:43:55.227Z,83.70
2018-06-25T20:46:22.897Z,84.00
2018-06-25T20:48:50.556Z,84.00
2018-06-25T20:51:18.233Z,84.20
2018-06-25T20:53:45.930Z,84.50
2018-06-25T20:56:13.613Z,84.60
2018-06-25T20:58:41.362Z,84.80
2018-06-25T21:01:09.115Z,84.80
2018-06-25T21:03:36.777Z,85.00
2018-06-25T21:06:04.502Z,85.30
2018-06-25T21:08:32.158Z,85.60
2018-06-25T21:10:59.812Z,85.90
2018-06-25T21:13:27.527Z,86.30
2018-06-25T21:15:55.198Z,86.30
2018-06-25T21:18:22.848Z,86.70
2018-06-25T21:20:50.503Z,86.80
2018-06-25T21:23:18.242Z,87.00
2018-06-25T21:25:45.913Z,87.00
2018-06-25T21:28:13.561Z,87.00
2018-06-25T21:30:41.267Z,87.10
2018-06-25T21:33:09.117Z,87.60
2018-06-25T21:38:04.562Z,87.50
2018-06-25T21:40:32.225Z,87.70
2018-06-25T21:42:59.905Z,88.00
2018-06-25T21:45:27.531Z,88.20
2018-06-25T21:47:55.179Z,88.10
2018-06-25T21:50:22.926Z,88.20
2018-06-25T21:52:50.673Z,88.50
2018-06-25T21:55:18.382Z,88.70
2018-06-25T21:57:46.050Z,88.70
2018-06-25T22:00:13.879Z,89.00
2018-06-25T22:02:41.924Z,88.90
2018-06-25T22:05:09.632Z,89.10
2018-06-25T22:07:37.318Z,89.20
2018-06-25T22:10:05.613Z,89.20
2018-06-25T22:12:33.401Z,89.10
2018-06-25T22:15:01.090Z,89.10
2018-06-25T22:17:28.779Z,89.00
2018-06-25T22:19:56.438Z,89.10
2018-06-25T22:22:24.138Z,89.30
2018-06-25T22:24:51.792Z,89.40
2018-06-25T22:27:19.446Z,89.40
2018-06-25T22:29:47.145Z,89.40
2018-06-25T22:32:14.876Z,89.50
2018-06-25T22:34:42.520Z,89.40
2018-06-25T22:37:10.166Z,89.50
2018-06-25T22:39:37.812Z,89.40
2018-06-25T22:42:05.535Z,89.60
2018-06-25T22:44:33.265Z,89.40
2018-06-25T22:47:00.946Z,89.30
2018-06-25T22:49:28.615Z,89.30
2018-06-25T22:51:56.224Z,89.30
2018-06-25T22:54:23.916Z,89.40
2018-06-25T22:56:51.591Z,89.40
2018-06-25T22:59:19.239Z,89.40
2018-06-25T23:01:46.870Z,89.70
2018-06-25T23:04:14.534Z,89.90
2018-06-25T23:06:42.241Z,89.60
2018-06-25T23:09:10.685Z,89.80
2018-06-25T23:11:38.326Z,89.90
2018-06-25T23:14:06.050Z,90.20
2018-06-25T23:16:33.791Z,90.40
2018-06-25T23:19:01.454Z,90.10
2018-06-25T23:21:29.109Z,89.90
2018-06-25T23:23:56.776Z,90.20
2018-06-25T23:26:24.396Z,90.20
2018-06-25T23:28:52.033Z,90.40
2018-06-25T23:31:19.693Z,90.40
2018-06-25T23:33:47.338Z,90.80
2018-06-25T23:36:14.992Z,90.70
2018-06-25T23:38:42.687Z,90.80
2018-06-25T23:41:10.409Z,91.20
2018-06-25T23:43:38.073Z,91.20
2018-06-25T23:46:05.782Z,91.30
2018-06-25T23:48:33.454Z,91.70
2018-06-25T23:51:01.105Z,91.70
2018-06-25T23:53:28.765Z,92.00
2018-06-25T23:58:24.043Z,92.20
